sensor_id;sensor_type;location;lat;lon;timestamp;P1;durP1;ratioP1;P2;durP2;ratioP2
4575;SDS011;2300;51.874;8.430;2024-01-30T00:01:07;29.80;;;18.93;;
4575;SDS011;2300;51.874;8.430;2024-01-30T00:03:33;27.37;;;19.40;;
4575;SDS011;2300;51.874;8.430;2024-01-30T00:06:01;29.33;;;19.50;;
4575;SDS011;2300;51.874;8.430;2024-01-30T00:08:29;30.37;;;20.17;;
4575;SDS011;2300;51.874;8.430;2024-01-30T00:10:56;27.13;;;19.13;;
4575;SDS011;2300;51.874;8.430;2024-01-30T00:13:22;29.83;;;19.90;;
4575;SDS011;2300;51.874;8.430;2024-01-30T00:15:49;27.33;;;19.87;;
4575;SDS011;2300;51.874;8.430;2024-01-30T00:18:15;26.60;;;19.63;;
4575;SDS011;2300;51.874;8.430;2024-01-30T00:20:42;29.77;;;19.57;;
4575;SDS011;2300;51.874;8.430;2024-01-30T00:23:10;26.30;;;19.53;;
4575;SDS011;2300;51.874;8.430;2024-01-30T00:25:36;29.07;;;19.23;;
4575;SDS011;2300;51.874;8.430;2024-01-30T00:28:03;28.57;;;20.37;;
4575;SDS011;2300;51.874;8.430;2024-01-30T00:30:30;28.60;;;19.63;;
4575;SDS011;2300;51.874;8.430;2024-01-30T00:32:56;32.27;;;19.77;;
4575;SDS011;2300;51.874;8.430;2024-01-30T00:35:23;30.70;;;19.87;;
4575;SDS011;2300;51.874;8.430;2024-01-30T00:37:49;28.10;;;20.13;;
4575;SDS011;2300;51.874;8.430;2024-01-30T00:40:18;29.63;;;20.73;;
4575;SDS011;2300;51.874;8.430;2024-01-30T00:42:45;29.07;;;21.07;;
4575;SDS011;2300;51.874;8.430;2024-01-30T00:45:12;28.70;;;20.10;;
4575;SDS011;2300;51.874;8.430;2024-01-30T00:47:39;31.73;;;21.37;;
4575;SDS011;2300;51.874;8.430;2024-01-30T00:50:06;27.20;;;20.77;;
4575;SDS011;2300;51.874;8.430;2024-01-30T00:52:33;32.97;;;21.00;;
4575;SDS011;2300;51.874;8.430;2024-01-30T00:55:00;28.83;;;20.83;;
4575;SDS011;2300;51.874;8.430;2024-01-30T00:57:28;32.13;;;20.50;;
4575;SDS011;2300;51.874;8.430;2024-01-30T00:59:54;30.40;;;21.53;;
4575;SDS011;2300;51.874;8.430;2024-01-30T01:02:21;28.60;;;19.90;;
4575;SDS011;2300;51.874;8.430;2024-01-30T01:04:47;28.67;;;20.67;;
4575;SDS011;2300;51.874;8.430;2024-01-30T01:07:14;31.13;;;20.80;;
4575;SDS011;2300;51.874;8.430;2024-01-30T01:09:40;32.90;;;20.77;;
4575;SDS011;2300;51.874;8.430;2024-01-30T01:12:07;28.57;;;19.50;;
4575;SDS011;2300;51.874;8.430;2024-01-30T01:14:35;30.23;;;20.50;;
4575;SDS011;2300;51.874;8.430;2024-01-30T01:17:01;28.90;;;21.87;;
4575;SDS011;2300;51.874;8.430;2024-01-30T01:19:28;32.80;;;21.90;;
4575;SDS011;2300;51.874;8.430;2024-01-30T01:21:54;29.67;;;21.00;;
4575;SDS011;2300;51.874;8.430;2024-01-30T01:24:21;31.07;;;22.03;;
4575;SDS011;2300;51.874;8.430;2024-01-30T01:26:47;30.80;;;22.23;;
4575;SDS011;2300;51.874;8.430;2024-01-30T01:29:14;30.43;;;21.77;;
4575;SDS011;2300;51.874;8.430;2024-01-30T01:31:42;34.60;;;21.97;;
4575;SDS011;2300;51.874;8.430;2024-01-30T01:34:09;30.67;;;21.43;;
4575;SDS011;2300;51.874;8.430;2024-01-30T01:36:35;34.27;;;21.17;;
4575;SDS011;2300;51.874;8.430;2024-01-30T01:39:02;32.90;;;21.90;;
4575;SDS011;2300;51.874;8.430;2024-01-30T01:41:29;32.33;;;22.30;;
4575;SDS011;2300;51.874;8.430;2024-01-30T01:43:56;32.53;;;21.53;;
4575;SDS011;2300;51.874;8.430;2024-01-30T01:46:22;35.97;;;23.17;;
4575;SDS011;2300;51.874;8.430;2024-01-30T01:48:50;31.47;;;22.77;;
4575;SDS011;2300;51.874;8.430;2024-01-30T01:51:17;33.20;;;22.27;;
4575;SDS011;2300;51.874;8.430;2024-01-30T01:53:43;34.20;;;22.03;;
4575;SDS011;2300;51.874;8.430;2024-01-30T01:56:10;34.37;;;24.17;;
4575;SDS011;2300;51.874;8.430;2024-01-30T01:58:37;34.63;;;23.97;;
4575;SDS011;2300;51.874;8.430;2024-01-30T02:01:04;38.70;;;24.07;;
4575;SDS011;2300;51.874;8.430;2024-01-30T02:03:31;40.07;;;24.13;;
4575;SDS011;2300;51.874;8.430;2024-01-30T02:05:59;33.87;;;22.30;;
4575;SDS011;2300;51.874;8.430;2024-01-30T02:08:25;34.40;;;22.83;;
4575;SDS011;2300;51.874;8.430;2024-01-30T02:10:52;33.47;;;23.73;;
4575;SDS011;2300;51.874;8.430;2024-01-30T02:13:20;35.23;;;23.47;;
4575;SDS011;2300;51.874;8.430;2024-01-30T02:15:48;35.33;;;24.23;;
4575;SDS011;2300;51.874;8.430;2024-01-30T02:18:15;35.30;;;24.23;;
4575;SDS011;2300;51.874;8.430;2024-01-30T02:20:42;39.47;;;25.80;;
4575;SDS011;2300;51.874;8.430;2024-01-30T02:23:10;37.37;;;25.47;;
4575;SDS011;2300;51.874;8.430;2024-01-30T02:25:39;36.80;;;24.13;;
4575;SDS011;2300;51.874;8.430;2024-01-30T02:28:09;34.60;;;23.83;;
4575;SDS011;2300;51.874;8.430;2024-01-30T02:30:35;39.27;;;25.13;;
4575;SDS011;2300;51.874;8.430;2024-01-30T02:33:02;38.47;;;25.23;;
4575;SDS011;2300;51.874;8.430;2024-01-30T02:35:29;34.10;;;23.63;;
4575;SDS011;2300;51.874;8.430;2024-01-30T02:37:55;41.10;;;25.27;;
4575;SDS011;2300;51.874;8.430;2024-01-30T02:40:23;36.63;;;24.87;;
4575;SDS011;2300;51.874;8.430;2024-01-30T02:42:49;34.90;;;24.87;;
4575;SDS011;2300;51.874;8.430;2024-01-30T02:45:16;40.33;;;25.97;;
4575;SDS011;2300;51.874;8.430;2024-01-30T02:47:43;36.43;;;25.37;;
4575;SDS011;2300;51.874;8.430;2024-01-30T02:50:09;42.57;;;26.57;;
4575;SDS011;2300;51.874;8.430;2024-01-30T02:52:36;35.57;;;24.97;;
4575;SDS011;2300;51.874;8.430;2024-01-30T02:55:03;39.20;;;25.67;;
4575;SDS011;2300;51.874;8.430;2024-01-30T02:57:31;38.00;;;25.73;;
4575;SDS011;2300;51.874;8.430;2024-01-30T02:59:59;35.97;;;24.33;;
4575;SDS011;2300;51.874;8.430;2024-01-30T03:02:26;39.00;;;25.60;;
4575;SDS011;2300;51.874;8.430;2024-01-30T03:04:52;38.73;;;25.80;;
4575;SDS011;2300;51.874;8.430;2024-01-30T03:07:19;38.03;;;25.33;;
4575;SDS011;2300;51.874;8.430;2024-01-30T03:09:45;34.47;;;25.17;;
4575;SDS011;2300;51.874;8.430;2024-01-30T03:12:11;37.73;;;25.90;;
4575;SDS011;2300;51.874;8.430;2024-01-30T03:14:39;41.70;;;26.10;;
4575;SDS011;2300;51.874;8.430;2024-01-30T03:17:06;42.53;;;26.37;;
4575;SDS011;2300;51.874;8.430;2024-01-30T03:19:33;41.00;;;25.90;;
4575;SDS011;2300;51.874;8.430;2024-01-30T03:21:59;37.77;;;25.57;;
4575;SDS011;2300;51.874;8.430;2024-01-30T03:24:26;41.37;;;26.57;;
4575;SDS011;2300;51.874;8.430;2024-01-30T03:26:52;38.43;;;25.53;;
4575;SDS011;2300;51.874;8.430;2024-01-30T03:29:19;36.77;;;25.23;;
4575;SDS011;2300;51.874;8.430;2024-01-30T03:31:47;36.23;;;25.27;;
4575;SDS011;2300;51.874;8.430;2024-01-30T03:34:14;39.37;;;26.00;;
4575;SDS011;2300;51.874;8.430;2024-01-30T03:36:40;35.20;;;24.70;;
4575;SDS011;2300;51.874;8.430;2024-01-30T03:39:07;41.20;;;25.67;;
4575;SDS011;2300;51.874;8.430;2024-01-30T03:41:33;40.80;;;25.33;;
4575;SDS011;2300;51.874;8.430;2024-01-30T03:44:00;38.10;;;25.57;;
4575;SDS011;2300;51.874;8.430;2024-01-30T03:46:26;41.83;;;28.17;;
4575;SDS011;2300;51.874;8.430;2024-01-30T03:48:54;39.47;;;26.37;;
4575;SDS011;2300;51.874;8.430;2024-01-30T03:51:21;40.83;;;25.80;;
4575;SDS011;2300;51.874;8.430;2024-01-30T03:53:47;37.47;;;24.83;;
4575;SDS011;2300;51.874;8.430;2024-01-30T03:56:14;40.67;;;26.37;;
4575;SDS011;2300;51.874;8.430;2024-01-30T03:58:40;39.70;;;25.33;;
4575;SDS011;2300;51.874;8.430;2024-01-30T04:01:07;41.83;;;25.83;;
4575;SDS011;2300;51.874;8.430;2024-01-30T04:03:34;35.17;;;24.20;;
4575;SDS011;2300;51.874;8.430;2024-01-30T04:06:01;41.80;;;26.47;;
4575;SDS011;2300;51.874;8.430;2024-01-30T04:08:28;39.83;;;27.10;;
4575;SDS011;2300;51.874;8.430;2024-01-30T04:10:55;42.93;;;28.40;;
4575;SDS011;2300;51.874;8.430;2024-01-30T04:13:21;42.53;;;26.80;;
4575;SDS011;2300;51.874;8.430;2024-01-30T04:15:48;37.53;;;25.53;;
4575;SDS011;2300;51.874;8.430;2024-01-30T04:18:14;35.30;;;24.83;;
4575;SDS011;2300;51.874;8.430;2024-01-30T04:20:41;35.83;;;25.03;;
4575;SDS011;2300;51.874;8.430;2024-01-30T04:23:08;36.93;;;24.63;;
4575;SDS011;2300;51.874;8.430;2024-01-30T04:25:35;40.73;;;26.23;;
4575;SDS011;2300;51.874;8.430;2024-01-30T04:28:01;39.33;;;24.17;;
4575;SDS011;2300;51.874;8.430;2024-01-30T04:30:28;38.47;;;25.40;;
4575;SDS011;2300;51.874;8.430;2024-01-30T04:32:55;41.17;;;27.10;;
4575;SDS011;2300;51.874;8.430;2024-01-30T04:35:21;41.97;;;26.73;;
4575;SDS011;2300;51.874;8.430;2024-01-30T04:37:49;41.07;;;25.47;;
4575;SDS011;2300;51.874;8.430;2024-01-30T04:40:19;40.07;;;25.97;;
4575;SDS011;2300;51.874;8.430;2024-01-30T04:42:45;40.13;;;26.10;;
4575;SDS011;2300;51.874;8.430;2024-01-30T04:45:12;41.03;;;26.17;;
4575;SDS011;2300;51.874;8.430;2024-01-30T04:47:38;40.10;;;25.50;;
4575;SDS011;2300;51.874;8.430;2024-01-30T04:50:06;41.20;;;27.40;;
4575;SDS011;2300;51.874;8.430;2024-01-30T04:52:33;42.13;;;27.10;;
4575;SDS011;2300;51.874;8.430;2024-01-30T04:55:00;41.20;;;26.17;;
4575;SDS011;2300;51.874;8.430;2024-01-30T04:57:28;39.57;;;26.87;;
4575;SDS011;2300;51.874;8.430;2024-01-30T04:59:54;40.80;;;26.40;;
4575;SDS011;2300;51.874;8.430;2024-01-30T05:02:21;39.20;;;25.83;;
4575;SDS011;2300;51.874;8.430;2024-01-30T05:04:47;40.60;;;26.13;;
4575;SDS011;2300;51.874;8.430;2024-01-30T05:07:14;45.23;;;28.27;;
4575;SDS011;2300;51.874;8.430;2024-01-30T05:09:40;39.97;;;26.67;;
4575;SDS011;2300;51.874;8.430;2024-01-30T05:12:07;43.30;;;27.83;;
4575;SDS011;2300;51.874;8.430;2024-01-30T05:14:35;44.23;;;27.63;;
4575;SDS011;2300;51.874;8.430;2024-01-30T05:17:01;49.07;;;31.23;;
4575;SDS011;2300;51.874;8.430;2024-01-30T05:19:28;43.80;;;27.57;;
4575;SDS011;2300;51.874;8.430;2024-01-30T05:21:54;44.87;;;28.10;;
4575;SDS011;2300;51.874;8.430;2024-01-30T05:24:21;43.77;;;27.90;;
4575;SDS011;2300;51.874;8.430;2024-01-30T05:26:48;48.73;;;27.57;;
4575;SDS011;2300;51.874;8.430;2024-01-30T05:29:16;49.00;;;29.77;;
4575;SDS011;2300;51.874;8.430;2024-01-30T05:31:44;49.83;;;28.90;;
4575;SDS011;2300;51.874;8.430;2024-01-30T05:34:10;49.50;;;28.33;;
4575;SDS011;2300;51.874;8.430;2024-01-30T05:36:37;47.73;;;28.90;;
4575;SDS011;2300;51.874;8.430;2024-01-30T05:39:03;47.47;;;28.97;;
4575;SDS011;2300;51.874;8.430;2024-01-30T05:41:30;44.63;;;27.87;;
4575;SDS011;2300;51.874;8.430;2024-01-30T05:43:56;46.87;;;27.87;;
4575;SDS011;2300;51.874;8.430;2024-01-30T05:46:23;49.13;;;29.43;;
4575;SDS011;2300;51.874;8.430;2024-01-30T05:48:51;47.47;;;28.60;;
4575;SDS011;2300;51.874;8.430;2024-01-30T05:51:18;45.80;;;29.90;;
4575;SDS011;2300;51.874;8.430;2024-01-30T05:53:44;44.30;;;28.80;;
4575;SDS011;2300;51.874;8.430;2024-01-30T05:56:11;49.03;;;29.00;;
4575;SDS011;2300;51.874;8.430;2024-01-30T05:58:37;41.50;;;28.57;;
4575;SDS011;2300;51.874;8.430;2024-01-30T06:01:06;45.60;;;28.43;;
4575;SDS011;2300;51.874;8.430;2024-01-30T06:03:33;42.90;;;27.27;;
4575;SDS011;2300;51.874;8.430;2024-01-30T06:06:01;46.50;;;28.17;;
4575;SDS011;2300;51.874;8.430;2024-01-30T06:08:28;44.10;;;28.23;;
4575;SDS011;2300;51.874;8.430;2024-01-30T06:10:54;46.07;;;27.73;;
4575;SDS011;2300;51.874;8.430;2024-01-30T06:13:21;47.63;;;27.17;;
4575;SDS011;2300;51.874;8.430;2024-01-30T06:15:47;44.40;;;26.93;;
4575;SDS011;2300;51.874;8.430;2024-01-30T06:18:13;44.97;;;27.57;;
4575;SDS011;2300;51.874;8.430;2024-01-30T06:20:40;47.67;;;27.87;;
4575;SDS011;2300;51.874;8.430;2024-01-30T06:23:08;43.83;;;27.60;;
4575;SDS011;2300;51.874;8.430;2024-01-30T06:25:35;44.27;;;26.67;;
4575;SDS011;2300;51.874;8.430;2024-01-30T06:28:01;47.83;;;26.97;;
4575;SDS011;2300;51.874;8.430;2024-01-30T06:30:28;40.90;;;26.13;;
4575;SDS011;2300;51.874;8.430;2024-01-30T06:32:55;46.20;;;28.07;;
4575;SDS011;2300;51.874;8.430;2024-01-30T06:35:22;44.07;;;27.37;;
4575;SDS011;2300;51.874;8.430;2024-01-30T06:37:48;44.50;;;28.07;;
4575;SDS011;2300;51.874;8.430;2024-01-30T06:40:16;48.87;;;28.37;;
4575;SDS011;2300;51.874;8.430;2024-01-30T06:42:43;45.43;;;28.90;;
4575;SDS011;2300;51.874;8.430;2024-01-30T06:45:09;44.80;;;29.20;;
4575;SDS011;2300;51.874;8.430;2024-01-30T06:47:36;41.77;;;27.37;;
4575;SDS011;2300;51.874;8.430;2024-01-30T06:50:03;44.60;;;27.10;;
4575;SDS011;2300;51.874;8.430;2024-01-30T06:52:30;47.60;;;28.90;;
4575;SDS011;2300;51.874;8.430;2024-01-30T06:54:56;44.80;;;27.87;;
4575;SDS011;2300;51.874;8.430;2024-01-30T06:57:24;47.03;;;29.10;;
4575;SDS011;2300;51.874;8.430;2024-01-30T06:59:53;51.27;;;30.00;;
4575;SDS011;2300;51.874;8.430;2024-01-30T07:02:19;48.73;;;28.97;;
4575;SDS011;2300;51.874;8.430;2024-01-30T07:04:46;50.60;;;29.03;;
4575;SDS011;2300;51.874;8.430;2024-01-30T07:07:12;46.77;;;27.70;;
4575;SDS011;2300;51.874;8.430;2024-01-30T07:09:40;44.73;;;27.70;;
4575;SDS011;2300;51.874;8.430;2024-01-30T07:12:07;44.30;;;26.83;;
4575;SDS011;2300;51.874;8.430;2024-01-30T07:14:35;48.03;;;28.30;;
4575;SDS011;2300;51.874;8.430;2024-01-30T07:17:01;41.57;;;28.13;;
4575;SDS011;2300;51.874;8.430;2024-01-30T07:19:28;46.10;;;27.73;;
4575;SDS011;2300;51.874;8.430;2024-01-30T07:21:54;42.97;;;26.97;;
4575;SDS011;2300;51.874;8.430;2024-01-30T07:24:21;51.03;;;30.17;;
4575;SDS011;2300;51.874;8.430;2024-01-30T07:26:47;45.33;;;28.13;;
4575;SDS011;2300;51.874;8.430;2024-01-30T07:29:14;53.20;;;29.73;;
4575;SDS011;2300;51.874;8.430;2024-01-30T07:31:42;49.37;;;27.80;;
4575;SDS011;2300;51.874;8.430;2024-01-30T07:34:08;43.67;;;28.03;;
4575;SDS011;2300;51.874;8.430;2024-01-30T07:36:35;44.90;;;26.70;;
4575;SDS011;2300;51.874;8.430;2024-01-30T07:39:01;46.47;;;27.27;;
4575;SDS011;2300;51.874;8.430;2024-01-30T07:41:28;44.43;;;27.77;;
4575;SDS011;2300;51.874;8.430;2024-01-30T07:43:55;47.70;;;28.03;;
4575;SDS011;2300;51.874;8.430;2024-01-30T07:46:21;43.13;;;27.97;;
4575;SDS011;2300;51.874;8.430;2024-01-30T07:48:49;43.20;;;27.13;;
4575;SDS011;2300;51.874;8.430;2024-01-30T07:51:16;46.67;;;27.30;;
4575;SDS011;2300;51.874;8.430;2024-01-30T07:53:42;43.60;;;27.80;;
4575;SDS011;2300;51.874;8.430;2024-01-30T07:56:09;45.83;;;27.83;;
4575;SDS011;2300;51.874;8.430;2024-01-30T07:58:36;44.00;;;27.60;;
4575;SDS011;2300;51.874;8.430;2024-01-30T08:01:03;47.03;;;29.67;;
4575;SDS011;2300;51.874;8.430;2024-01-30T08:03:30;46.37;;;29.73;;
4575;SDS011;2300;51.874;8.430;2024-01-30T08:05:57;46.33;;;27.83;;
4575;SDS011;2300;51.874;8.430;2024-01-30T08:08:24;49.37;;;28.67;;
4575;SDS011;2300;51.874;8.430;2024-01-30T08:10:51;43.20;;;27.97;;
4575;SDS011;2300;51.874;8.430;2024-01-30T08:13:18;49.23;;;30.20;;
4575;SDS011;2300;51.874;8.430;2024-01-30T08:15:44;45.57;;;29.47;;
4575;SDS011;2300;51.874;8.430;2024-01-30T08:18:11;47.70;;;28.97;;
4575;SDS011;2300;51.874;8.430;2024-01-30T08:20:37;43.43;;;29.07;;
4575;SDS011;2300;51.874;8.430;2024-01-30T08:23:05;46.33;;;28.67;;
4575;SDS011;2300;51.874;8.430;2024-01-30T08:25:32;46.77;;;29.83;;
4575;SDS011;2300;51.874;8.430;2024-01-30T08:27:58;47.67;;;31.20;;
4575;SDS011;2300;51.874;8.430;2024-01-30T08:30:25;49.87;;;30.37;;
4575;SDS011;2300;51.874;8.430;2024-01-30T08:32:52;48.13;;;30.00;;
4575;SDS011;2300;51.874;8.430;2024-01-30T08:35:19;44.80;;;28.73;;
4575;SDS011;2300;51.874;8.430;2024-01-30T08:37:45;45.03;;;30.10;;
4575;SDS011;2300;51.874;8.430;2024-01-30T08:40:13;42.80;;;29.30;;
4575;SDS011;2300;51.874;8.430;2024-01-30T08:42:40;41.27;;;29.17;;
4575;SDS011;2300;51.874;8.430;2024-01-30T08:45:06;42.50;;;27.53;;
4575;SDS011;2300;51.874;8.430;2024-01-30T08:47:34;43.53;;;26.83;;
4575;SDS011;2300;51.874;8.430;2024-01-30T08:50:01;44.10;;;27.77;;
4575;SDS011;2300;51.874;8.430;2024-01-30T08:52:27;41.70;;;27.93;;
4575;SDS011;2300;51.874;8.430;2024-01-30T08:54:54;40.13;;;28.17;;
4575;SDS011;2300;51.874;8.430;2024-01-30T08:57:22;44.43;;;29.00;;
4575;SDS011;2300;51.874;8.430;2024-01-30T08:59:48;42.73;;;28.47;;
4575;SDS011;2300;51.874;8.430;2024-01-30T09:02:15;41.77;;;28.40;;
4575;SDS011;2300;51.874;8.430;2024-01-30T09:04:43;46.87;;;29.47;;
4575;SDS011;2300;51.874;8.430;2024-01-30T09:07:09;45.33;;;30.03;;
4575;SDS011;2300;51.874;8.430;2024-01-30T09:09:38;48.10;;;32.07;;
4575;SDS011;2300;51.874;8.430;2024-01-30T09:12:06;46.93;;;32.20;;
4575;SDS011;2300;51.874;8.430;2024-01-30T09:14:35;48.13;;;30.83;;
4575;SDS011;2300;51.874;8.430;2024-01-30T09:17:02;53.77;;;30.53;;
4575;SDS011;2300;51.874;8.430;2024-01-30T09:19:29;38.83;;;27.40;;
4575;SDS011;2300;51.874;8.430;2024-01-30T09:21:56;35.77;;;25.43;;
4575;SDS011;2300;51.874;8.430;2024-01-30T09:24:23;34.03;;;25.03;;
4575;SDS011;2300;51.874;8.430;2024-01-30T09:26:49;29.60;;;22.80;;
4575;SDS011;2300;51.874;8.430;2024-01-30T09:29:16;28.67;;;22.53;;
4575;SDS011;2300;51.874;8.430;2024-01-30T09:31:44;32.83;;;22.37;;
4575;SDS011;2300;51.874;8.430;2024-01-30T09:34:11;27.30;;;20.33;;
4575;SDS011;2300;51.874;8.430;2024-01-30T09:36:37;25.27;;;18.80;;
4575;SDS011;2300;51.874;8.430;2024-01-30T09:39:04;23.47;;;17.43;;
4575;SDS011;2300;51.874;8.430;2024-01-30T09:41:32;24.37;;;17.70;;
4575;SDS011;2300;51.874;8.430;2024-01-30T09:44:00;20.03;;;16.30;;
4575;SDS011;2300;51.874;8.430;2024-01-30T09:46:29;23.00;;;15.63;;
4575;SDS011;2300;51.874;8.430;2024-01-30T09:49:00;21.53;;;14.67;;
4575;SDS011;2300;51.874;8.430;2024-01-30T09:51:29;19.43;;;14.53;;
4575;SDS011;2300;51.874;8.430;2024-01-30T09:53:56;19.67;;;14.43;;
4575;SDS011;2300;51.874;8.430;2024-01-30T09:56:23;23.77;;;14.43;;
4575;SDS011;2300;51.874;8.430;2024-01-30T09:58:50;27.87;;;17.37;;
4575;SDS011;2300;51.874;8.430;2024-01-30T10:01:16;46.83;;;31.83;;
4575;SDS011;2300;51.874;8.430;2024-01-30T10:03:44;39.47;;;25.43;;
4575;SDS011;2300;51.874;8.430;2024-01-30T10:06:12;25.93;;;19.33;;
4575;SDS011;2300;51.874;8.430;2024-01-30T10:08:38;22.90;;;14.93;;
4575;SDS011;2300;51.874;8.430;2024-01-30T10:11:05;15.77;;;12.80;;
4575;SDS011;2300;51.874;8.430;2024-01-30T10:13:32;18.47;;;11.97;;
4575;SDS011;2300;51.874;8.430;2024-01-30T10:15:58;19.33;;;12.83;;
4575;SDS011;2300;51.874;8.430;2024-01-30T10:18:27;20.53;;;12.03;;
4575;SDS011;2300;51.874;8.430;2024-01-30T10:20:54;14.63;;;10.80;;
4575;SDS011;2300;51.874;8.430;2024-01-30T10:23:22;14.20;;;11.23;;
4575;SDS011;2300;51.874;8.430;2024-01-30T10:25:49;17.73;;;10.73;;
4575;SDS011;2300;51.874;8.430;2024-01-30T10:28:17;15.63;;;10.97;;
4575;SDS011;2300;51.874;8.430;2024-01-30T10:30:44;16.73;;;10.93;;
4575;SDS011;2300;51.874;8.430;2024-01-30T10:33:10;15.10;;;10.30;;
4575;SDS011;2300;51.874;8.430;2024-01-30T10:35:37;16.60;;;10.37;;
4575;SDS011;2300;51.874;8.430;2024-01-30T10:38:03;14.83;;;10.57;;
4575;SDS011;2300;51.874;8.430;2024-01-30T10:40:34;17.83;;;10.77;;
4575;SDS011;2300;51.874;8.430;2024-01-30T10:43:03;16.33;;;10.30;;
4575;SDS011;2300;51.874;8.430;2024-01-30T10:45:33;16.07;;;10.70;;
4575;SDS011;2300;51.874;8.430;2024-01-30T10:48:01;14.70;;;10.60;;
4575;SDS011;2300;51.874;8.430;2024-01-30T10:50:31;14.63;;;9.83;;
4575;SDS011;2300;51.874;8.430;2024-01-30T10:53:00;15.77;;;9.80;;
4575;SDS011;2300;51.874;8.430;2024-01-30T10:55:28;14.93;;;9.37;;
4575;SDS011;2300;51.874;8.430;2024-01-30T10:57:57;14.60;;;9.47;;
4575;SDS011;2300;51.874;8.430;2024-01-30T11:00:25;13.67;;;8.97;;
4575;SDS011;2300;51.874;8.430;2024-01-30T11:02:52;14.87;;;10.20;;
4575;SDS011;2300;51.874;8.430;2024-01-30T11:05:25;11.70;;;9.37;;
4575;SDS011;2300;51.874;8.430;2024-01-30T11:07:54;15.40;;;9.43;;
4575;SDS011;2300;51.874;8.430;2024-01-30T11:10:20;15.43;;;9.57;;
4575;SDS011;2300;51.874;8.430;2024-01-30T11:12:47;15.17;;;9.37;;
4575;SDS011;2300;51.874;8.430;2024-01-30T11:15:16;16.10;;;10.23;;
4575;SDS011;2300;51.874;8.430;2024-01-30T11:17:44;14.50;;;9.30;;
4575;SDS011;2300;51.874;8.430;2024-01-30T11:20:12;13.53;;;9.80;;
4575;SDS011;2300;51.874;8.430;2024-01-30T11:22:42;14.40;;;9.70;;
4575;SDS011;2300;51.874;8.430;2024-01-30T11:25:13;14.57;;;9.70;;
4575;SDS011;2300;51.874;8.430;2024-01-30T11:27:40;16.03;;;9.90;;
4575;SDS011;2300;51.874;8.430;2024-01-30T11:30:08;18.50;;;10.00;;
4575;SDS011;2300;51.874;8.430;2024-01-30T11:32:36;12.37;;;8.70;;
4575;SDS011;2300;51.874;8.430;2024-01-30T11:35:03;14.30;;;8.83;;
4575;SDS011;2300;51.874;8.430;2024-01-30T11:37:31;11.27;;;8.27;;
4575;SDS011;2300;51.874;8.430;2024-01-30T11:40:02;12.97;;;8.03;;
4575;SDS011;2300;51.874;8.430;2024-01-30T11:42:31;12.23;;;8.60;;
4575;SDS011;2300;51.874;8.430;2024-01-30T11:44:59;14.57;;;8.63;;
4575;SDS011;2300;51.874;8.430;2024-01-30T11:47:26;13.03;;;8.30;;
4575;SDS011;2300;51.874;8.430;2024-01-30T11:49:55;12.83;;;7.87;;
4575;SDS011;2300;51.874;8.430;2024-01-30T11:52:22;10.80;;;7.90;;
4575;SDS011;2300;51.874;8.430;2024-01-30T11:54:48;12.20;;;8.10;;
4575;SDS011;2300;51.874;8.430;2024-01-30T11:57:15;13.40;;;8.50;;
4575;SDS011;2300;51.874;8.430;2024-01-30T11:59:41;11.77;;;7.53;;
4575;SDS011;2300;51.874;8.430;2024-01-30T12:02:08;11.43;;;8.33;;
4575;SDS011;2300;51.874;8.430;2024-01-30T12:04:35;11.77;;;7.20;;
4575;SDS011;2300;51.874;8.430;2024-01-30T12:07:03;13.70;;;8.03;;
4575;SDS011;2300;51.874;8.430;2024-01-30T12:09:30;12.73;;;7.70;;
4575;SDS011;2300;51.874;8.430;2024-01-30T12:11:56;12.60;;;7.23;;
4575;SDS011;2300;51.874;8.430;2024-01-30T12:14:23;12.30;;;8.17;;
4575;SDS011;2300;51.874;8.430;2024-01-30T12:16:50;11.17;;;7.97;;
4575;SDS011;2300;51.874;8.430;2024-01-30T12:19:22;11.30;;;7.80;;
4575;SDS011;2300;51.874;8.430;2024-01-30T12:21:53;14.57;;;8.17;;
4575;SDS011;2300;51.874;8.430;2024-01-30T12:24:22;10.70;;;7.43;;
4575;SDS011;2300;51.874;8.430;2024-01-30T12:26:49;11.63;;;8.23;;
4575;SDS011;2300;51.874;8.430;2024-01-30T12:29:16;13.07;;;8.87;;
4575;SDS011;2300;51.874;8.430;2024-01-30T12:31:43;13.13;;;7.80;;
4575;SDS011;2300;51.874;8.430;2024-01-30T12:34:13;11.53;;;8.07;;
4575;SDS011;2300;51.874;8.430;2024-01-30T12:36:40;11.07;;;8.20;;
4575;SDS011;2300;51.874;8.430;2024-01-30T12:39:06;12.17;;;8.10;;
4575;SDS011;2300;51.874;8.430;2024-01-30T12:41:38;11.50;;;7.90;;
4575;SDS011;2300;51.874;8.430;2024-01-30T12:44:05;11.93;;;7.70;;
4575;SDS011;2300;51.874;8.430;2024-01-30T12:46:31;13.67;;;7.83;;
4575;SDS011;2300;51.874;8.430;2024-01-30T12:49:00;12.67;;;7.97;;
4575;SDS011;2300;51.874;8.430;2024-01-30T12:51:26;11.50;;;7.90;;
4575;SDS011;2300;51.874;8.430;2024-01-30T12:53:53;12.50;;;7.83;;
4575;SDS011;2300;51.874;8.430;2024-01-30T12:56:20;14.63;;;8.37;;
4575;SDS011;2300;51.874;8.430;2024-01-30T12:58:48;15.03;;;8.03;;
4575;SDS011;2300;51.874;8.430;2024-01-30T13:01:14;14.37;;;8.27;;
4575;SDS011;2300;51.874;8.430;2024-01-30T13:03:41;14.73;;;8.30;;
4575;SDS011;2300;51.874;8.430;2024-01-30T13:06:07;13.97;;;8.40;;
4575;SDS011;2300;51.874;8.430;2024-01-30T13:08:34;12.93;;;8.07;;
4575;SDS011;2300;51.874;8.430;2024-01-30T13:11:00;14.30;;;8.10;;
4575;SDS011;2300;51.874;8.430;2024-01-30T13:13:27;15.37;;;8.17;;
4575;SDS011;2300;51.874;8.430;2024-01-30T13:15:55;13.07;;;8.00;;
4575;SDS011;2300;51.874;8.430;2024-01-30T13:18:21;12.00;;;7.77;;
4575;SDS011;2300;51.874;8.430;2024-01-30T13:20:48;13.07;;;7.90;;
4575;SDS011;2300;51.874;8.430;2024-01-30T13:23:14;12.03;;;8.00;;
4575;SDS011;2300;51.874;8.430;2024-01-30T13:25:41;11.33;;;7.83;;
4575;SDS011;2300;51.874;8.430;2024-01-30T13:28:08;11.50;;;7.90;;
4575;SDS011;2300;51.874;8.430;2024-01-30T13:30:35;14.77;;;8.03;;
4575;SDS011;2300;51.874;8.430;2024-01-30T13:33:04;12.73;;;8.20;;
4575;SDS011;2300;51.874;8.430;2024-01-30T13:35:31;11.60;;;7.57;;
4575;SDS011;2300;51.874;8.430;2024-01-30T13:37:58;15.70;;;8.13;;
4575;SDS011;2300;51.874;8.430;2024-01-30T13:40:24;15.23;;;8.17;;
4575;SDS011;2300;51.874;8.430;2024-01-30T13:42:51;15.53;;;7.47;;
4575;SDS011;2300;51.874;8.430;2024-01-30T13:45:18;11.10;;;7.80;;
4575;SDS011;2300;51.874;8.430;2024-01-30T13:47:44;13.70;;;7.77;;
4575;SDS011;2300;51.874;8.430;2024-01-30T13:50:12;16.30;;;8.77;;
4575;SDS011;2300;51.874;8.430;2024-01-30T13:52:41;16.90;;;8.33;;
4575;SDS011;2300;51.874;8.430;2024-01-30T13:55:08;13.57;;;8.43;;
4575;SDS011;2300;51.874;8.430;2024-01-30T13:57:35;17.03;;;9.07;;
4575;SDS011;2300;51.874;8.430;2024-01-30T14:00:01;18.60;;;9.27;;
4575;SDS011;2300;51.874;8.430;2024-01-30T14:02:30;17.50;;;9.10;;
4575;SDS011;2300;51.874;8.430;2024-01-30T14:04:58;19.40;;;9.90;;
4575;SDS011;2300;51.874;8.430;2024-01-30T14:07:26;23.53;;;10.47;;
4575;SDS011;2300;51.874;8.430;2024-01-30T14:09:53;18.53;;;10.37;;
4575;SDS011;2300;51.874;8.430;2024-01-30T14:12:20;22.33;;;10.33;;
4575;SDS011;2300;51.874;8.430;2024-01-30T14:14:47;17.87;;;9.53;;
4575;SDS011;2300;51.874;8.430;2024-01-30T14:17:13;19.67;;;9.67;;
4575;SDS011;2300;51.874;8.430;2024-01-30T14:19:40;13.33;;;9.07;;
4575;SDS011;2300;51.874;8.430;2024-01-30T14:22:07;16.37;;;8.83;;
4575;SDS011;2300;51.874;8.430;2024-01-30T14:24:35;16.50;;;8.60;;
4575;SDS011;2300;51.874;8.430;2024-01-30T14:27:02;15.30;;;8.47;;
4575;SDS011;2300;51.874;8.430;2024-01-30T14:29:28;20.07;;;8.80;;
4575;SDS011;2300;51.874;8.430;2024-01-30T14:31:55;16.77;;;9.53;;
4575;SDS011;2300;51.874;8.430;2024-01-30T14:34:22;15.10;;;8.80;;
4575;SDS011;2300;51.874;8.430;2024-01-30T14:36:48;16.77;;;8.67;;
4575;SDS011;2300;51.874;8.430;2024-01-30T14:39:15;16.93;;;8.60;;
4575;SDS011;2300;51.874;8.430;2024-01-30T14:41:44;17.30;;;9.33;;
4575;SDS011;2300;51.874;8.430;2024-01-30T14:44:11;15.67;;;9.53;;
4575;SDS011;2300;51.874;8.430;2024-01-30T14:46:39;18.10;;;8.97;;
4575;SDS011;2300;51.874;8.430;2024-01-30T14:49:06;19.57;;;9.13;;